Terminal Aerodrome Forecast
Issued by NWS

Home | Current Version | Previous Version | Text Only | Print | Product List | Glossary On
Versions: 1 2 3 4 5 6 7 8 9 10 11 12 13 14 15 16 17 18 19 20 21 22
000
FTUS42 KGSP 181130
TAFAND
TAF
KAND 181130Z 1812/1912 07006KT P6SM OVC030
     FM181700 07004KT 6SM -RA BR OVC015
      TEMPO 1819/1823 4SM -RA BR OVC004
     FM182300 16005KT 3SM -RA BR OVC005 PROB30 1823/1905 1SM -RA BR
      OVC002
     FM190600 23008G16KT 1 1/2SM BR BKN003 WS020/27035KT
     FM190900 25009G16KT P6SM BKN025=

USA.gov is the U.S. government's official web portal to all federal, state and local government web resources and services.